Aérodrome :
LOGIN :

S'inscrire | Disclaimer

   EN    FR    IT 

 










Légende :    VFR   VFR Marginal   IFR   IFR Intensif   IFR Très Intensif
Visi : 
Plafond : 
>= 8 km
>= 3000ft
5 à 8 km
1000 à 3000 ft
1500m à 5 km
500 à 1000 ft
800 à 1500m
200 à 500 ft
< 800m
< 200 ft
Symboles :   Orages  Brouillard  Fortes neiges  Fortes précipitations  Vent > 20 kt
SIGMETs :   Divers  Orages  Givrage  Turbulence  Onde Orograph.  Cendres Volcan.






- Altitude de l'aérodrome : 508 ft
- Code IATA : HRK


UKHH - Osnova

DERNIER METAR :
  • 241730Z 35007G12MPS 9999 -SHSN BKN005 BKN016CB 01/00 Q0989 R25/290079 TEMPO 34012G20MPS

METARs EXPIRÉS :
  • 241700Z 35006MPS 4300 2100E -SHSN BR BKN004 BKN016CB 00/00 Q0989 R25/290079 TEMPO 34012G20MPS 0400 +SHSN BKN015CB
  • 241630Z 34005MPS 2300 -RA BR BKN003 01/01 Q0988 R07/290079 TEMPO 34012G20MPS
  • 241600Z 01003MPS 2200 -RA BR BKN003 03/02 Q0988 R07/290079 TEMPO 34012G20MPS
  • 241530Z 04002MPS 3200 -RA BR BKN003 03/02 Q0987 R07/290079 TEMPO 34012G20MPS
  • 241500Z 08004MPS 2300 -RA BR BKN002 03/02 Q0987 R07/290079 TEMPO 34012G20MPS

TAF TAF UKHH
Valide du 24 à 18h jusqu'au 25 à 18h UTC


241708Z 2418/2518 33008G13MPS 2100 -SHSN BKN004 BKN020CB TX02/2512Z TNM01/2506Z
TEMPO 2418/2424 34012G20MPS 0400 +SHSN BKN002 BKN015CB
PROB40
TEMPO 2418/2424 -FZRA
BECMG 2500/2502 29009G16MPS 9999 NSW BKN011
BECMG 2506/2508 27007G12MPS



MET'MAP, la Météo Aéronautique d'un coup d'oeil ! - Copyright ORBIFLY Décembre 2007 - Disclaimer

ORBIFLY MET'MAP TEAM :

Programmation & Développement : Alexandra Zaïnal
Sur une idée originale de : Baudouin d'Aumeries
Assistance à la programmation : Marc-Olivier Méhu
Soutien technique & logistique : Manuel Goepfert

Contact : metmap@orbifly.com




SOURCES & CREDITS :

   NOAA